TimeCEST,TemperatureF,Dew PointF,Humidity,Sea Level PressureIn,VisibilityMPH,Wind Direction,Wind SpeedMPH,Gust SpeedMPH,PrecipitationIn,Events,Conditions,WindDirDegrees,DateUTC
12:15 AM,55.4,48.2,77,30.06,-9999.0,Calm,Calm,-,N/A,,Clear,0,2012-10-03 22:15:00
12:45 AM,53.6,48.2,82,30.06,-9999.0,West,2.2,-,N/A,,Clear,270,2012-10-03 22:45:00
1:15 AM,53.6,48.2,82,30.06,-9999.0,West,2.2,-,N/A,,Clear,270,2012-10-03 23:15:00
1:45 AM,51.8,46.4,82,30.06,-9999.0,West,2.2,-,N/A,,Clear,280,2012-10-03 23:45:00
2:15 AM,51.8,46.4,82,30.06,-9999.0,WNW,4.5,-,N/A,,Clear,290,2012-10-04 00:15:00
2:45 AM,53.6,46.4,77,30.06,-9999.0,WNW,4.5,-,N/A,,Clear,290,2012-10-04 00:45:00
3:15 AM,51.8,46.4,82,30.04,-9999.0,West,2.2,-,N/A,,Clear,280,2012-10-04 01:15:00
3:45 AM,-9999,-9999,N/A,-9999,1.9,Variable,4.5,-,N/A,,Clear,0,2012-10-04 01:45:00
4:15 AM,48.2,46.4,93,30.04,5.0,WNW,4.5,-,N/A,,Clear,300,2012-10-04 02:15:00
4:45 AM,48.2,46.4,93,30.04,3.7,WNW,2.2,-,N/A,,Clear,300,2012-10-04 02:45:00
5:15 AM,48.2,44.6,87,30.04,3.1,SW,2.2,-,N/A,,Clear,230,2012-10-04 03:15:00
5:45 AM,48.2,46.4,93,30.04,3.1,West,2.2,-,N/A,,Partly Cloudy,280,2012-10-04 03:45:00
6:15 AM,48.2,46.4,93,30.04,3.1,WNW,2.2,-,N/A,,Partly Cloudy,300,2012-10-04 04:15:00
6:45 AM,48.2,44.6,87,30.04,2.5,WNW,2.2,-,N/A,,Scattered Clouds,300,2012-10-04 04:45:00
6:57 AM,48.2,44.6,87,30.06,2.5,NNW,2.2,-,N/A,Fog,Fog,340,2012-10-04 04:57:00
7:01 AM,48.2,44.6,87,30.06,0.4,North,2.2,-,N/A,Fog,Fog,350,2012-10-04 05:01:00
7:09 AM,48.2,44.6,87,30.06,0.1,NNW,2.2,-,N/A,Fog,Fog,340,2012-10-04 05:09:00
7:15 AM,48.2,46.4,93,30.06,0.1,NNW,2.2,-,N/A,Fog,Fog,340,2012-10-04 05:15:00
7:45 AM,50.0,48.2,94,30.06,0.1,North,2.2,-,N/A,Fog,Fog,350,2012-10-04 05:45:00
8:10 AM,-9999,-9999,N/A,-9999,0.1,Variable,4.5,-,N/A,Fog,Fog,0,2012-10-04 06:10:00
8:15 AM,51.8,50.0,94,30.06,0.1,NNE,2.2,-,N/A,Fog,Fog,20,2012-10-04 06:15:00
8:45 AM,51.8,51.8,100,30.06,0.1,North,4.5,-,N/A,Fog,Fog,10,2012-10-04 06:45:00
9:15 AM,51.8,51.8,100,30.06,0.1,NE,2.2,-,N/A,Fog,Fog,50,2012-10-04 07:15:00
9:45 AM,-9999,-9999,N/A,-9999,0.9,Variable,4.5,-,N/A,,Scattered Clouds,0,2012-10-04 07:45:00
10:00 AM,53.6,51.8,94,30.06,0.2,WNW,2.2,-,N/A,Fog,Fog,300,2012-10-04 08:00:00
10:15 AM,-9999,-9999,N/A,-9999,0.5,Variable,4.5,-,N/A,Fog,Fog,0,2012-10-04 08:15:00
10:45 AM,53.6,53.6,100,30.06,0.7,NNW,2.2,-,N/A,,Overcast,340,2012-10-04 08:45:00
10:53 AM,55.4,53.6,94,30.06,0.9,Variable,4.5,-,N/A,,Mostly Cloudy,0,2012-10-04 08:53:00
11:15 AM,55.4,55.4,100,30.06,1.9,Variable,2.2,-,N/A,,Mostly Cloudy,0,2012-10-04 09:15:00
11:27 AM,57.2,55.4,94,30.06,3.1,Calm,Calm,-,N/A,,Scattered Clouds,0,2012-10-04 09:27:00
11:45 AM,59.0,55.4,88,30.06,3.7,Calm,Calm,-,N/A,,Scattered Clouds,0,2012-10-04 09:45:00
12:15 PM,62.6,55.4,77,30.06,-9999.0,Variable,2.2,-,N/A,,Clear,0,2012-10-04 10:15:00
12:45 PM,64.4,57.2,77,30.04,-9999.0,Variable,2.2,-,N/A,,Clear,0,2012-10-04 10:45:00
1:15 PM,66.2,55.4,68,30.04,-9999.0,Variable,2.2,-,N/A,,Clear,0,2012-10-04 11:15:00
1:45 PM,68.0,55.4,64,30.04,-9999.0,Calm,Calm,-,N/A,,Clear,0,2012-10-04 11:45:00
2:15 PM,68.0,55.4,64,30.01,-9999.0,Variable,2.2,-,N/A,,Clear,0,2012-10-04 12:15:00
2:45 PM,68.0,53.6,60,30.01,-9999.0,Variable,2.2,-,N/A,,Clear,0,2012-10-04 12:45:00
3:15 PM,69.8,50.0,49,29.98,-9999.0,Variable,2.2,-,N/A,,Clear,0,2012-10-04 13:15:00
3:45 PM,69.8,48.2,46,29.98,-9999.0,Variable,2.2,-,N/A,,Clear,0,2012-10-04 13:45:00
4:15 PM,69.8,46.4,43,29.98,-9999.0,Variable,2.2,-,N/A,,Clear,0,2012-10-04 14:15:00
4:45 PM,69.8,46.4,43,29.98,-9999.0,Variable,2.2,-,N/A,,Clear,0,2012-10-04 14:45:00
5:15 PM,68.0,46.4,46,29.98,-9999.0,Variable,2.2,-,N/A,,Clear,0,2012-10-04 15:15:00
5:45 PM,64.4,50.0,59,29.95,-9999.0,Variable,2.2,-,N/A,,Clear,0,2012-10-04 15:45:00
6:45 PM,-9999,-9999,N/A,-9999,3.1,Variable,4.5,-,N/A,Rain,Rain Showers,0,2012-10-04 16:45:00
7:15 PM,60.8,50.0,68,29.95,-9999.0,ESE,2.2,-,N/A,,Clear,110,2012-10-04 17:15:00
7:45 PM,59.0,50.0,72,29.95,-9999.0,SE,2.2,-,N/A,,Clear,130,2012-10-04 17:45:00
8:15 PM,57.2,48.2,72,29.95,-9999.0,Calm,Calm,-,N/A,,Clear,0,2012-10-04 18:15:00
8:45 PM,57.2,50.0,77,29.95,-9999.0,ESE,2.2,-,N/A,,Clear,110,2012-10-04 18:45:00
9:15 PM,55.4,50.0,82,29.98,-9999.0,ESE,2.2,-,N/A,,Clear,120,2012-10-04 19:15:00
9:45 PM,-9999,-9999,N/A,-9999,3.1,Variable,4.5,-,N/A,Rain,Rain Showers,0,2012-10-04 19:45:00
10:15 PM,55.4,50.0,82,29.98,-9999.0,South,2.2,-,N/A,,Clear,170,2012-10-04 20:15:00
10:45 PM,55.4,50.0,82,29.98,-9999.0,South,2.2,-,N/A,,Clear,170,2012-10-04 20:45:00
11:15 PM,55.4,48.2,77,29.98,-9999.0,South,2.2,-,N/A,,Clear,190,2012-10-04 21:15:00
11:45 PM,55.4,50.0,82,29.98,-9999.0,South,4.5,-,N/A,,Clear,180,2012-10-04 21:45:00